Ludlow, United Kingdom
Current Conditions -  °F | °C
As of 8:50 AM on Thursday 27 Nov 2014 (Local Time) from EGOS Reporting Station
Moderate Fog Moderate Fog  
Wind Chill: 45°   Ceiling: 400
Heat Index: 45°   Visibility: 0.43mi
Dew Point: 43°   Wind: 3mph
Humidity: 93%   Direction: 110°ESE
Pressure: 29.59"   Gusts: NA
Location:  52.37°N, 2.71°W
Report Text: EGOS 270850Z 11003KT 0700 FG SCT001 BKN004 07/06 Q1002 RED BECMG 1200 BR BKN002 AMB
Loading
Personal Weather Stations






























Interactive Weather Map New forecast layout! Learn more

10-Day Weather Forecast

Advertisements
Track Severe Weather on mobile